Time;durP1;ratioP1;P1;durP2;ratioP2;P2;SDS_P1;SDS_P2;PMS_P1;PMS_P2;Temp;Humidity;BMP_temperature;BMP_pressure;BME280_temperature;BME280_humidity;BME280_pressure;Samples;Min_cycle;Max_cycle;Signal;HPM_P1;HPM_P2
2023/03/18 00:02:20;;;;;;;20.83;17.90;;;;;;;-141.22;100.00;65034.22;4935621;29;20532;-46
2023/03/18 00:04:48;;;;;;;18.53;16.60;;;;;;;-141.22;100.00;65034.22;4935439;28;20883;-49
2023/03/18 00:07:16;;;;;;;19.97;17.47;;;;;;;-141.22;100.00;65034.22;4935987;29;20433;-46
2023/03/18 00:09:44;;;;;;;20.90;18.63;;;;;;;-141.22;100.00;65034.22;4936021;29;20970;-44
2023/03/18 00:12:11;;;;;;;20.20;18.23;;;;;;;-141.22;100.00;65034.22;4935686;29;20444;-46
2023/03/18 00:14:39;;;;;;;20.40;18.23;;;;;;;-141.22;100.00;65034.22;4935357;28;20487;-43
2023/03/18 00:17:08;;;;;;;20.07;18.10;;;;;;;-141.22;100.00;65034.22;4935668;29;20476;-43
2023/03/18 00:19:36;;;;;;;19.73;17.73;;;;;;;-141.22;100.00;65034.22;4935755;29;20468;-43
2023/03/18 00:22:04;;;;;;;19.13;17.10;;;;;;;-141.22;100.00;65034.22;4935478;29;20452;-44
2023/03/18 00:24:32;;;;;;;19.47;17.40;;;;;;;-141.22;100.00;65034.22;4934715;28;20468;-45
2023/03/18 00:27:00;;;;;;;19.73;17.67;;;;;;;-141.22;100.00;65034.22;4935015;29;20437;-44
2023/03/18 00:29:27;;;;;;;20.57;18.67;;;;;;;-141.22;100.00;65034.22;4935454;29;20996;-45
2023/03/18 00:31:55;;;;;;;18.60;16.93;;;;;;;-141.22;100.00;65034.22;4950760;23;20420;-47
2023/03/18 00:34:24;;;;;;;19.13;17.43;;;;;;;-141.22;100.00;65034.22;4933366;28;20483;-48
2023/03/18 00:36:55;;;;;;;20.87;18.60;;;;;;;-141.22;100.00;65034.22;4934098;29;20472;-44
2023/03/18 00:39:25;;;;;;;23.73;18.60;;;;;;;-141.22;100.00;65034.22;4933860;29;20448;-45
2023/03/18 00:41:55;;;;;;;21.07;19.17;;;;;;;-141.22;100.00;65034.22;4933776;29;20589;-46
2023/03/18 00:44:24;;;;;;;19.60;18.00;;;;;;;-141.22;100.00;65034.22;4933399;28;20472;-49
2023/03/18 00:46:51;;;;;;;20.20;18.20;;;;;;;-141.22;100.00;65034.22;4934234;29;20432;-48
2023/03/18 00:49:19;;;;;;;20.97;18.97;;;;;;;-141.22;100.00;65034.22;4937651;29;20447;-44
2023/03/18 00:51:48;;;;;;;20.83;18.80;;;;;;;-141.22;100.00;65034.22;4937184;29;20475;-47
2023/03/18 00:54:19;;;;;;;19.67;18.00;;;;;;;-141.22;100.00;65034.22;4937264;28;20492;-46
2023/03/18 00:56:47;;;;;;;21.73;19.53;;;;;;;-141.22;100.00;65034.22;4937043;29;20475;-46
2023/03/18 00:59:15;;;;;;;20.53;18.60;;;;;;;-141.22;100.00;65034.22;4937506;29;20443;-46
2023/03/18 01:01:42;;;;;;;20.27;18.50;;;;;;;-141.22;100.00;65034.22;4937133;29;20447;-48
2023/03/18 01:04:11;;;;;;;18.37;16.57;;;;;;;-141.22;100.00;65034.22;4936993;28;20508;-46
2023/03/18 01:06:39;;;;;;;19.53;17.80;;;;;;;-141.22;100.00;65034.22;4937272;29;20460;-44
2023/03/18 01:09:10;;;;;;;19.40;17.70;;;;;;;-141.22;100.00;65034.22;4937067;29;20527;-45
2023/03/18 01:11:38;;;;;;;18.83;17.23;;;;;;;-141.22;100.00;65034.22;4936996;29;20784;-46
2023/03/18 01:14:06;;;;;;;18.67;17.03;;;;;;;-141.22;100.00;65034.22;4936825;28;20539;-47
2023/03/18 01:16:34;;;;;;;18.17;16.57;;;;;;;-141.22;100.00;65034.22;4937005;29;20437;-48
2023/03/18 01:19:03;;;;;;;19.53;17.80;;;;;;;-141.22;100.00;65034.22;4937165;29;21004;-50
2023/03/18 01:21:30;;;;;;;18.73;16.80;;;;;;;-141.22;100.00;65034.22;4936905;29;20519;-50
2023/03/18 01:23:59;;;;;;;20.93;18.93;;;;;;;-141.22;100.00;65034.22;4936275;28;20487;-50
2023/03/18 01:26:29;;;;;;;21.00;19.00;;;;;;;-141.22;100.00;65034.22;4936807;29;20468;-46
2023/03/18 01:28:57;;;;;;;19.33;17.60;;;;;;;-141.22;100.00;65034.22;4936759;29;20436;-47
2023/03/18 01:31:24;;;;;;;20.23;18.10;;;;;;;-141.22;100.00;65034.22;4936524;29;20479;-50
2023/03/18 01:33:53;;;;;;;19.60;17.70;;;;;;;-141.22;100.00;65034.22;4936064;28;20539;-44
2023/03/18 01:36:21;;;;;;;19.20;17.57;;;;;;;-141.22;100.00;65034.22;4936885;29;20456;-47
2023/03/18 01:38:49;;;;;;;21.23;18.80;;;;;;;-141.22;100.00;65034.22;4936531;29;21059;-47
2023/03/18 01:41:17;;;;;;;21.10;19.00;;;;;;;-141.22;100.00;65034.22;4936751;29;20436;-46
2023/03/18 01:43:47;;;;;;;19.40;17.03;;;;;;;-141.22;100.00;65034.22;4936045;28;20573;-49
2023/03/18 01:46:35;;;;;;;17.60;16.10;;;;;;;-141.22;100.00;65034.22;4936821;29;20506;-49
2023/03/18 01:49:07;;;;;;;21.70;19.60;;;;;;;-141.22;100.00;65034.22;4936162;29;21014;-47
2023/03/18 01:51:38;;;;;;;19.07;17.50;;;;;;;-141.22;100.00;65034.22;4936239;29;20436;-46
2023/03/18 01:54:07;;;;;;;20.03;18.23;;;;;;;-141.22;100.00;65034.22;4935982;28;20478;-47
2023/03/18 01:56:38;;;;;;;20.20;18.50;;;;;;;-141.22;100.00;65034.22;4936477;29;20520;-53
2023/03/18 01:59:10;;;;;;;21.53;19.70;;;;;;;-141.22;100.00;65034.22;4935245;29;21039;-45
2023/03/18 02:01:41;;;;;;;20.60;18.50;;;;;;;-141.22;100.00;65034.22;4936052;29;20429;-47
2023/03/18 02:04:10;;;;;;;21.77;19.70;;;;;;;-141.22;100.00;65034.22;4935882;28;20476;-50
2023/03/18 02:06:39;;;;;;;22.07;20.13;;;;;;;-141.22;100.00;65034.22;4935667;29;21146;-47
2023/03/18 02:09:07;;;;;;;22.10;20.10;;;;;;;-141.22;100.00;65034.22;4936338;29;20439;-45
2023/03/18 02:11:38;;;;;;;21.97;19.90;;;;;;;-141.22;100.00;65034.22;4935922;29;20433;-48
2023/03/18 02:14:10;;;;;;;20.90;19.03;;;;;;;-141.22;100.00;65034.22;4935584;28;20840;-45
2023/03/18 02:16:44;;;;;;;22.07;20.13;;;;;;;-141.22;100.00;65034.22;4936233;29;20440;-46
2023/03/18 02:19:22;;;;;;;20.67;18.93;;;;;;;-141.22;100.00;65034.22;4936019;29;20512;-50
2023/03/18 02:21:56;;;;;;;18.63;17.03;;;;;;;-141.22;100.00;65034.22;4935853;29;20440;-44
2023/03/18 02:24:36;;;;;;;19.20;17.60;;;;;;;-141.22;100.00;65034.22;4935324;28;20500;-44
2023/03/18 02:27:15;;;;;;;18.97;17.57;;;;;;;-141.22;100.00;65034.22;4936190;29;20949;-47
2023/03/18 02:29:43;;;;;;;18.23;16.93;;;;;;;-141.22;100.00;65034.22;4935654;29;20436;-45
2023/03/18 02:32:13;;;;;;;17.53;16.13;;;;;;;-141.22;100.00;65034.22;4935411;29;20571;-47
2023/03/18 02:34:43;;;;;;;19.77;18.17;;;;;;;-141.22;100.00;65034.22;4933858;28;20845;-44
2023/03/18 02:37:11;;;;;;;20.07;18.30;;;;;;;-141.22;100.00;65034.22;4935844;29;20429;-46
2023/03/18 02:39:39;;;;;;;19.10;17.60;;;;;;;-141.22;100.00;65034.22;4935623;29;20480;-45
2023/03/18 02:42:11;;;;;;;19.63;17.90;;;;;;;-141.22;100.00;65034.22;4935517;29;20936;-47
2023/03/18 02:44:47;;;;;;;20.33;18.53;;;;;;;-141.22;100.00;65034.22;4934690;28;20476;-45
2023/03/18 02:47:29;;;;;;;18.67;16.90;;;;;;;-141.22;100.00;65034.22;4934417;29;20417;-45
2023/03/18 02:50:01;;;;;;;18.10;16.50;;;;;;;-141.22;100.00;65034.22;4935400;29;21102;-45
2023/03/18 02:52:29;;;;;;;18.87;17.37;;;;;;;-141.22;100.00;65034.22;4935043;29;20463;-46
2023/03/18 02:54:58;;;;;;;19.30;17.70;;;;;;;-141.22;100.00;65034.22;4934865;28;20465;-49
2023/03/18 02:57:25;;;;;;;19.43;17.73;;;;;;;-141.22;100.00;65034.22;4935416;29;20535;-50
2023/03/18 02:59:54;;;;;;;17.20;15.90;;;;;;;-141.22;100.00;65034.22;4935244;29;20511;-49
2023/03/18 03:02:22;;;;;;;16.40;15.30;;;;;;;-141.22;100.00;65034.22;4934826;29;20461;-45
2023/03/18 03:04:50;;;;;;;16.50;15.20;;;;;;;-141.22;100.00;65034.22;4934443;28;20523;-46
2023/03/18 03:07:18;;;;;;;14.63;13.63;;;;;;;-141.22;100.00;65034.22;4935207;29;20441;-48
2023/03/18 03:09:46;;;;;;;16.10;14.97;;;;;;;-141.22;100.00;65034.22;4935088;29;20540;-53
2023/03/18 03:12:14;;;;;;;16.50;15.10;;;;;;;-141.22;100.00;65034.22;4934632;29;20456;-49
2023/03/18 03:14:41;;;;;;;15.83;14.90;;;;;;;-141.22;100.00;65034.22;4934632;28;20461;-50
2023/03/18 03:17:11;;;;;;;16.47;15.17;;;;;;;-141.22;100.00;65034.22;4934845;29;20479;-51
2023/03/18 03:19:39;;;;;;;15.37;14.27;;;;;;;-141.22;100.00;65034.22;4934678;29;20567;-46
2023/03/18 03:22:07;;;;;;;16.00;14.70;;;;;;;-141.22;100.00;65034.22;4934654;29;20460;-46
2023/03/18 03:24:35;;;;;;;17.10;15.67;;;;;;;-141.22;100.00;65034.22;4934462;28;20469;-47
2023/03/18 03:27:03;;;;;;;17.10;15.80;;;;;;;-141.22;100.00;65034.22;4934920;29;20440;-50
2023/03/18 03:29:31;;;;;;;18.10;16.50;;;;;;;-141.22;100.00;65034.22;4934569;29;20432;-47
2023/03/18 03:31:59;;;;;;;17.40;16.17;;;;;;;-141.22;100.00;65034.22;4933977;29;20467;-51
2023/03/18 03:34:28;;;;;;;14.60;13.60;;;;;;;-141.22;100.00;65034.22;4934054;28;20476;-45
2023/03/18 03:36:56;;;;;;;16.20;14.73;;;;;;;-141.22;100.00;65034.22;4934511;29;20443;-46
2023/03/18 03:39:24;;;;;;;15.10;14.07;;;;;;;-141.22;100.00;65034.22;4934403;29;20480;-47
2023/03/18 03:41:52;;;;;;;16.27;15.00;;;;;;;-141.22;100.00;65034.22;4934115;29;20440;-45
2023/03/18 03:44:19;;;;;;;16.20;14.80;;;;;;;-141.22;100.00;65034.22;4933692;28;20472;-48
2023/03/18 03:46:48;;;;;;;14.93;14.00;;;;;;;-141.22;100.00;65034.22;4934528;29;21002;-43
2023/03/18 03:49:15;;;;;;;15.80;14.50;;;;;;;-141.22;100.00;65034.22;4934081;29;20437;-45
2023/03/18 03:51:45;;;;;;;15.40;14.30;;;;;;;-141.22;100.00;65034.22;4934016;29;20498;-48
2023/03/18 03:54:14;;;;;;;16.63;15.47;;;;;;;-141.22;100.00;65034.22;4933777;28;21000;-46
2023/03/18 03:56:42;;;;;;;16.83;15.50;;;;;;;-141.22;100.00;65034.22;4934271;29;20436;-45
2023/03/18 03:59:10;;;;;;;15.50;14.20;;;;;;;-141.22;100.00;65034.22;4934094;29;20985;-47
2023/03/18 04:01:38;;;;;;;16.13;14.93;;;;;;;-141.22;100.00;65034.22;4934010;29;20439;-50
2023/03/18 04:04:06;;;;;;;15.70;14.53;;;;;;;-141.22;100.00;65034.22;4933646;28;20468;-53
2023/03/18 04:06:34;;;;;;;14.20;13.20;;;;;;;-141.22;100.00;65034.22;4934296;29;20459;-49
2023/03/18 04:09:04;;;;;;;15.60;14.17;;;;;;;-141.22;100.00;65034.22;4934291;29;20437;-48
2023/03/18 04:11:32;;;;;;;14.30;13.40;;;;;;;-141.22;100.00;65034.22;4933681;29;20440;-49
2023/03/18 04:14:00;;;;;;;17.20;15.60;;;;;;;-141.22;100.00;65034.22;4933558;28;20471;-46
2023/03/18 04:16:27;;;;;;;16.20;14.90;;;;;;;-141.22;100.00;65034.22;4934340;29;20448;-53
2023/03/18 04:18:55;;;;;;;15.87;14.43;;;;;;;-141.22;100.00;65034.22;4933202;29;20479;-45
2023/03/18 04:21:23;;;;;;;15.23;14.17;;;;;;;-141.22;100.00;65034.22;4933456;29;20552;-46
2023/03/18 04:23:50;;;;;;;14.83;13.93;;;;;;;-141.22;100.00;65034.22;4933679;28;20471;-49
2023/03/18 04:26:19;;;;;;;16.00;14.60;;;;;;;-141.22;100.00;65034.22;4933932;29;20476;-49
2023/03/18 04:28:47;;;;;;;16.60;15.50;;;;;;;-141.22;100.00;65034.22;4934239;29;20432;-47
2023/03/18 04:31:15;;;;;;;15.57;14.50;;;;;;;-141.22;100.00;65034.22;4934028;29;20437;-49
2023/03/18 04:33:43;;;;;;;15.10;14.20;;;;;;;-141.22;100.00;65034.22;4933352;28;20839;-51
2023/03/18 04:36:11;;;;;;;15.27;14.10;;;;;;;-141.22;100.00;65034.22;4933796;29;20443;-46
2023/03/18 04:38:39;;;;;;;15.17;14.17;;;;;;;-141.22;100.00;65034.22;4933541;29;20448;-48
2023/03/18 04:41:07;;;;;;;15.50;14.40;;;;;;;-141.22;100.00;65034.22;4933858;29;20440;-47
2023/03/18 04:43:36;;;;;;;15.80;14.77;;;;;;;-141.22;100.00;65034.22;4933319;28;20468;-47
2023/03/18 04:46:04;;;;;;;17.20;15.50;;;;;;;-141.22;100.00;65034.22;4933689;29;20441;-45
2023/03/18 04:48:31;;;;;;;17.10;15.60;;;;;;;-141.22;100.00;65034.22;4933876;29;20448;-49
2023/03/18 04:50:59;;;;;;;16.13;14.97;;;;;;;-141.22;100.00;65034.22;4931216;29;20432;-48
2023/03/18 04:53:27;;;;;;;17.27;15.43;;;;;;;-141.22;100.00;65034.22;4930970;28;20541;-48
2023/03/18 04:55:56;;;;;;;15.50;14.37;;;;;;;-141.22;100.00;65034.22;4933591;29;20441;-51
2023/03/18 04:58:24;;;;;;;15.80;14.53;;;;;;;-141.22;100.00;65034.22;4933368;29;20436;-47
2023/03/18 05:00:54;;;;;;;15.13;14.23;;;;;;;-141.22;100.00;65034.22;4933343;29;20480;-46
2023/03/18 05:03:21;;;;;;;16.57;15.17;;;;;;;-141.22;100.00;65034.22;4932145;28;20468;-46
2023/03/18 05:05:49;;;;;;;15.80;14.70;;;;;;;-141.22;100.00;65034.22;4933186;29;20923;-44
2023/03/18 05:08:17;;;;;;;15.57;14.77;;;;;;;-141.22;100.00;65034.22;4933056;29;20464;-45
2023/03/18 05:10:45;;;;;;;14.93;13.93;;;;;;;-141.22;100.00;65034.22;4933344;29;20488;-47
2023/03/18 05:13:12;;;;;;;16.23;15.13;;;;;;;-141.22;100.00;65034.22;4932413;28;20463;-46
2023/03/18 05:15:41;;;;;;;15.97;14.87;;;;;;;-141.22;100.00;65034.22;4933282;29;20440;-46
2023/03/18 05:18:10;;;;;;;15.63;14.53;;;;;;;-141.22;100.00;65034.22;4932929;29;20535;-46
2023/03/18 05:20:38;;;;;;;15.40;14.40;;;;;;;-141.22;100.00;65034.22;4932424;29;20483;-50
2023/03/18 05:23:06;;;;;;;14.73;13.83;;;;;;;-141.22;100.00;65034.22;4932462;28;20468;-45
2023/03/18 05:25:34;;;;;;;16.60;15.17;;;;;;;-141.22;100.00;65034.22;4933050;29;20441;-48
2023/03/18 05:28:01;;;;;;;14.70;13.80;;;;;;;-141.22;100.00;65034.22;4933083;29;20445;-46
2023/03/18 05:30:29;;;;;;;16.33;15.03;;;;;;;-141.22;100.00;65034.22;4933151;29;20444;-54
2023/03/18 05:32:57;;;;;;;16.13;15.10;;;;;;;-141.22;100.00;65034.22;4931996;28;20465;-51
2023/03/18 05:35:26;;;;;;;14.57;13.67;;;;;;;-141.22;100.00;65034.22;4935370;29;20441;-46
2023/03/18 05:37:54;;;;;;;15.77;14.70;;;;;;;-141.22;100.00;65034.22;4936546;29;20519;-44
2023/03/18 05:40:22;;;;;;;16.17;15.17;;;;;;;-141.22;100.00;65034.22;4936356;29;20484;-46
2023/03/18 05:42:50;;;;;;;15.53;14.53;;;;;;;-141.22;100.00;65034.22;4935441;28;20467;-45
2023/03/18 05:45:23;;;;;;;16.93;15.67;;;;;;;-141.22;100.00;65034.22;4936156;29;20467;-48
2023/03/18 05:47:52;;;;;;;15.67;14.43;;;;;;;-141.22;100.00;65034.22;4936342;29;20472;-45
2023/03/18 05:50:29;;;;;;;16.33;14.97;;;;;;;-141.22;100.00;65034.22;4933548;29;20528;-46
2023/03/18 05:52:57;;;;;;;15.70;14.53;;;;;;;-141.22;100.00;65034.22;4934996;28;20449;-49
2023/03/18 05:55:27;;;;;;;14.13;13.33;;;;;;;-141.22;100.00;65034.22;4936374;29;20445;-47
2023/03/18 05:57:54;;;;;;;15.60;14.47;;;;;;;-141.22;100.00;65034.22;4935821;29;20443;-47
2023/03/18 06:00:23;;;;;;;16.03;14.90;;;;;;;-141.22;100.00;65034.22;4935993;29;20563;-46
2023/03/18 06:02:52;;;;;;;15.93;14.37;;;;;;;-141.22;100.00;65034.22;4935069;28;20926;-47
2023/03/18 06:05:21;;;;;;;16.97;15.67;;;;;;;-141.22;100.00;65034.22;4935133;29;21026;-47
2023/03/18 06:07:51;;;;;;;18.03;16.63;;;;;;;-141.22;100.00;65034.22;4930395;29;20874;-50
2023/03/18 06:10:18;;;;;;;17.83;16.10;;;;;;;-141.22;100.00;65034.22;4911975;28;20555;-48
2023/03/18 06:12:46;;;;;;;15.53;14.20;;;;;;;-141.22;100.00;65034.22;4935185;29;20463;-50
2023/03/18 06:15:14;;;;;;;14.40;13.47;;;;;;;-141.22;100.00;65034.22;4934795;29;20452;-46
2023/03/18 06:17:42;;;;;;;16.23;14.83;;;;;;;-141.22;100.00;65034.22;4934707;29;20548;-46
2023/03/18 06:20:12;;;;;;;21.23;15.33;;;;;;;-141.22;100.00;65034.22;4934522;28;21028;-51
2023/03/18 06:22:42;;;;;;;16.80;15.43;;;;;;;-141.22;100.00;65034.22;4935049;29;20461;-49
2023/03/18 06:25:11;;;;;;;15.13;14.13;;;;;;;-141.22;100.00;65034.22;4934996;29;20834;-46
2023/03/18 06:27:39;;;;;;;15.90;15.00;;;;;;;-141.22;100.00;65034.22;4934261;29;20436;-48
2023/03/18 06:30:09;;;;;;;15.90;14.87;;;;;;;-141.22;100.00;65034.22;4923737;29;20433;-50
2023/03/18 06:32:37;;;;;;;17.33;16.03;;;;;;;-141.22;100.00;65034.22;4927549;28;20474;-52
2023/03/18 06:35:05;;;;;;;16.13;14.83;;;;;;;-141.22;100.00;65034.22;4934404;29;20527;-53
2023/03/18 06:37:33;;;;;;;16.57;15.30;;;;;;;-141.22;100.00;65034.22;4933858;29;20429;-50
2023/03/18 06:40:01;;;;;;;17.07;15.47;;;;;;;-141.22;100.00;65034.22;4934350;29;20487;-49
2023/03/18 06:42:30;;;;;;;16.67;15.30;;;;;;;-141.22;100.00;65034.22;4934436;28;20469;-47
2023/03/18 06:44:58;;;;;;;16.40;15.20;;;;;;;-141.22;100.00;65034.22;4934432;29;20461;-49
2023/03/18 06:47:26;;;;;;;16.67;15.47;;;;;;;-141.22;100.00;65034.22;4933971;29;20519;-48
2023/03/18 06:49:54;;;;;;;16.60;15.40;;;;;;;-141.22;100.00;65034.22;4933952;29;20437;-49
2023/03/18 06:52:23;;;;;;;17.00;15.70;;;;;;;-141.22;100.00;65034.22;4934293;28;20469;-52
2023/03/18 06:54:52;;;;;;;17.43;16.23;;;;;;;-141.22;100.00;65034.22;4934753;29;20919;-48
2023/03/18 06:57:20;;;;;;;18.27;16.87;;;;;;;-141.22;100.00;65034.22;4933784;29;20957;-51
2023/03/18 06:59:49;;;;;;;16.80;15.40;;;;;;;-141.22;100.00;65034.22;4934471;29;20966;-54
2023/03/18 07:02:17;;;;;;;16.90;15.60;;;;;;;-141.22;100.00;65034.22;4931658;28;20504;-46
2023/03/18 07:04:45;;;;;;;16.37;15.13;;;;;;;-141.22;100.00;65034.22;4935053;29;20468;-48
2023/03/18 07:07:13;;;;;;;16.60;15.50;;;;;;;-141.22;100.00;65034.22;4933824;29;20561;-48
2023/03/18 07:09:42;;;;;;;16.03;14.93;;;;;;;-141.22;100.00;65034.22;4934163;29;20433;-45
2023/03/18 07:12:10;;;;;;;17.97;16.37;;;;;;;-141.22;100.00;65034.22;4934184;28;20479;-48
2023/03/18 07:14:38;;;;;;;18.00;16.43;;;;;;;-141.22;100.00;65034.22;4935202;29;20436;-50
2023/03/18 07:17:07;;;;;;;16.93;15.57;;;;;;;-141.22;100.00;65034.22;4933440;29;20449;-53
2023/03/18 07:19:35;;;;;;;16.47;15.53;;;;;;;-141.22;100.00;65034.22;4934272;29;20472;-52
2023/03/18 07:22:03;;;;;;;17.90;16.70;;;;;;;-141.22;100.00;65034.22;4931826;28;20473;-46
2023/03/18 07:24:31;;;;;;;17.43;16.20;;;;;;;-141.22;100.00;65034.22;4934716;29;20465;-45
2023/03/18 07:26:59;;;;;;;16.80;15.80;;;;;;;-141.22;100.00;65034.22;4933099;29;20441;-55
2023/03/18 07:29:27;;;;;;;15.60;14.70;;;;;;;-141.22;100.00;65034.22;4933992;29;20437;-50
2023/03/18 07:31:54;;;;;;;17.43;16.03;;;;;;;-141.22;100.00;65034.22;4927360;28;20504;-52
2023/03/18 07:34:23;;;;;;;16.93;15.83;;;;;;;-141.22;100.00;65034.22;4924920;29;20444;-49
2023/03/18 07:36:51;;;;;;;17.50;16.30;;;;;;;-141.22;100.00;65034.22;4933020;29;20448;-43
2023/03/18 07:39:19;;;;;;;18.10;16.80;;;;;;;-141.22;100.00;65034.22;4933566;29;20437;-53
2023/03/18 07:41:48;;;;;;;19.23;17.53;;;;;;;-141.22;100.00;65034.22;4933804;28;20488;-51
2023/03/18 07:44:15;;;;;;;16.37;15.37;;;;;;;-141.22;100.00;65034.22;4934201;29;20855;-47
2023/03/18 07:46:44;;;;;;;17.43;16.20;;;;;;;-141.22;100.00;65034.22;4933574;29;20437;-47
2023/03/18 07:49:12;;;;;;;17.73;16.47;;;;;;;-141.22;100.00;65034.22;4933264;29;20813;-47
2023/03/18 07:51:41;;;;;;;17.00;16.10;;;;;;;-141.22;100.00;65034.22;4933635;28;20512;-47
2023/03/18 07:54:08;;;;;;;18.40;17.10;;;;;;;-141.22;100.00;65034.22;4933988;29;20443;-52
2023/03/18 07:56:36;;;;;;;19.00;17.50;;;;;;;-141.22;100.00;65034.22;4932664;29;20443;-48
2023/03/18 07:59:04;;;;;;;17.90;16.67;;;;;;;-141.22;100.00;65034.22;4928176;29;20440;-45
2023/03/18 08:01:31;;;;;;;17.57;16.27;;;;;;;-141.22;100.00;65034.22;4930008;29;20593;-46
2023/03/18 08:03:59;;;;;;;16.67;15.47;;;;;;;-141.22;100.00;65034.22;4929932;28;20471;-48
2023/03/18 08:06:27;;;;;;;17.37;15.83;;;;;;;-141.22;100.00;65034.22;4934234;29;20432;-46
2023/03/18 08:08:56;;;;;;;16.83;15.40;;;;;;;-141.22;100.00;65034.22;4933931;29;20441;-55
2023/03/18 08:11:24;;;;;;;17.47;16.17;;;;;;;-141.22;100.00;65034.22;4932796;29;20447;-52
2023/03/18 08:13:51;;;;;;;17.83;16.17;;;;;;;-141.22;100.00;65034.22;4932753;28;20472;-51
2023/03/18 08:16:19;;;;;;;16.60;15.37;;;;;;;-141.22;100.00;65034.22;4933907;29;20433;-51
2023/03/18 08:18:47;;;;;;;17.90;16.60;;;;;;;-141.22;100.00;65034.22;4933780;29;20476;-53
2023/03/18 08:21:15;;;;;;;18.77;17.37;;;;;;;-141.22;100.00;65034.22;4933999;29;20479;-51
2023/03/18 08:23:43;;;;;;;17.77;16.37;;;;;;;-141.22;100.00;65034.22;4932780;28;20480;-50
2023/03/18 08:26:12;;;;;;;18.03;16.60;;;;;;;-141.22;100.00;65034.22;4931527;29;20539;-53
2023/03/18 08:28:40;;;;;;;18.80;17.50;;;;;;;-141.22;100.00;65034.22;4932430;29;20847;-50
2023/03/18 08:31:08;;;;;;;18.30;17.10;;;;;;;-141.22;100.00;65034.22;4926297;29;20940;-46
2023/03/18 08:33:36;;;;;;;19.60;18.10;;;;;;;-141.22;100.00;65034.22;4926676;28;20473;-51
2023/03/18 08:36:04;;;;;;;20.97;19.13;;;;;;;-141.22;100.00;65034.22;4926415;29;20441;-51
2023/03/18 08:38:32;;;;;;;21.23;19.47;;;;;;;-141.22;100.00;65034.22;4929194;29;20442;-51
2023/03/18 08:41:00;;;;;;;19.23;17.93;;;;;;;-141.22;100.00;65034.22;4932582;29;20477;-53
2023/03/18 08:43:29;;;;;;;19.30;17.70;;;;;;;-141.22;100.00;65034.22;4932411;28;20885;-50
2023/03/18 08:45:57;;;;;;;20.47;18.73;;;;;;;-141.22;100.00;65034.22;4930731;29;20448;-49
2023/03/18 08:48:25;;;;;;;19.10;17.47;;;;;;;-141.22;100.00;65034.22;4929674;29;20472;-53
2023/03/18 08:50:53;;;;;;;22.90;20.37;;;;;;;-141.22;100.00;65034.22;4928128;29;21316;-50
2023/03/18 08:53:21;;;;;;;20.70;18.77;;;;;;;-141.22;100.00;65034.22;4927972;28;20467;-54
2023/03/18 08:55:49;;;;;;;23.43;21.53;;;;;;;-141.22;100.00;65034.22;4933121;29;21032;-48
2023/03/18 08:58:17;;;;;;;24.83;22.30;;;;;;;-141.22;100.00;65034.22;4933335;29;20449;-51
2023/03/18 09:00:48;;;;;;;23.93;21.83;;;;;;;-141.22;100.00;65034.22;4933098;29;20532;-49
2023/03/18 09:03:16;;;;;;;24.80;22.50;;;;;;;-141.22;100.00;65034.22;4930157;28;20549;-49
2023/03/18 09:05:48;;;;;;;24.20;21.97;;;;;;;-141.22;100.00;65034.22;4933427;29;20519;-51
2023/03/18 09:08:15;;;;;;;24.70;22.37;;;;;;;-141.22;100.00;65034.22;4926595;29;20527;-54
2023/03/18 09:10:45;;;;;;;24.23;22.23;;;;;;;-141.22;100.00;65034.22;4936370;29;20445;-46
2023/03/18 09:13:12;;;;;;;34.23;26.40;;;;;;;-141.22;100.00;65034.22;4935642;28;20837;-47
2023/03/18 09:15:41;;;;;;;30.57;28.03;;;;;;;-141.22;100.00;65034.22;4936328;29;20856;-51
2023/03/18 09:18:12;;;;;;;29.97;27.30;;;;;;;-141.22;100.00;65034.22;4936179;29;20975;-52
2023/03/18 09:20:40;;;;;;;29.80;26.90;;;;;;;-141.22;100.00;65034.22;4936230;29;20516;-48
2023/03/18 09:23:10;;;;;;;28.90;26.30;;;;;;;-141.22;100.00;65034.22;4932657;28;21002;-49
2023/03/18 09:25:38;;;;;;;32.03;29.07;;;;;;;-141.22;100.00;65034.22;4936687;29;20449;-46
2023/03/18 09:28:06;;;;;;;29.87;27.23;;;;;;;-141.22;100.00;65034.22;4936160;29;20528;-48
2023/03/18 09:30:34;;;;;;;34.93;31.33;;;;;;;-141.22;100.00;65034.22;4936028;29;20938;-54
2023/03/18 09:33:04;;;;;;;35.73;32.30;;;;;;;-141.22;100.00;65034.22;4935204;28;20472;-46
2023/03/18 09:35:35;;;;;;;36.50;32.57;;;;;;;-141.22;100.00;65034.22;4936261;29;20554;-53
2023/03/18 09:38:03;;;;;;;36.90;33.20;;;;;;;-141.22;100.00;65034.22;4935057;29;20942;-47
2023/03/18 09:40:34;;;;;;;40.27;35.97;;;;;;;-141.22;100.00;65034.22;4935322;29;20775;-52
2023/03/18 09:43:19;;;;;;;40.07;36.17;;;;;;;-141.22;100.00;65034.22;4934531;28;20477;-52
2023/03/18 09:45:58;;;;;;;39.70;35.53;;;;;;;-141.22;100.00;65034.22;4931820;29;20977;-50
2023/03/18 09:48:46;;;;;;;43.20;38.63;;;;;;;-141.22;100.00;65034.22;4931506;29;20960;-50
2023/03/18 09:51:28;;;;;;;43.90;39.47;;;;;;;-141.22;100.00;65034.22;4927917;29;20449;-47
2023/03/18 09:54:01;;;;;;;44.57;40.27;;;;;;;-141.22;100.00;65034.22;4929050;28;20477;-51
2023/03/18 09:56:33;;;;;;;44.17;39.67;;;;;;;-141.22;100.00;65034.22;4929615;29;20444;-48
2023/03/18 09:59:03;;;;;;;43.23;38.83;;;;;;;-141.22;100.00;65034.22;4929542;29;20805;-47
2023/03/18 10:01:35;;;;;;;45.07;40.40;;;;;;;-141.22;100.00;65034.22;4925935;29;20434;-49
2023/03/18 10:04:09;;;;;;;46.73;40.00;;;;;;;-141.22;100.00;65034.22;4928525;28;20970;-48
2023/03/18 10:06:41;;;;;;;48.87;43.87;;;;;;;-141.22;100.00;65034.22;4932264;29;20441;-48
2023/03/18 10:09:16;;;;;;;49.53;42.43;;;;;;;-141.22;100.00;65034.22;4930409;29;20441;-50
2023/03/18 10:11:46;;;;;;;45.83;41.23;;;;;;;-141.22;100.00;65034.22;4935150;29;20448;-48
2023/03/18 10:14:30;;;;;;;47.27;42.37;;;;;;;-141.22;100.00;65034.22;4934778;28;20830;-47
2023/03/18 10:17:08;;;;;;;46.00;41.47;;;;;;;-141.22;100.00;65034.22;4935675;29;20868;-49
2023/03/18 10:19:37;;;;;;;48.50;43.70;;;;;;;-141.22;100.00;65034.22;4927122;29;20524;-53
2023/03/18 10:22:19;;;;;;;50.50;43.47;;;;;;;-141.22;100.00;65034.22;4935317;29;20489;-49
2023/03/18 10:24:55;;;;;;;48.80;43.87;;;;;;;-141.22;100.00;65034.22;4934683;28;20468;-51
2023/03/18 10:27:37;;;;;;;46.07;41.30;;;;;;;-141.22;100.00;65034.22;4934848;29;20475;-54
2023/03/18 10:30:27;;;;;;;47.53;42.53;;;;;;;-141.22;100.00;65034.22;4931601;29;20961;-46
2023/03/18 10:33:04;;;;;;;47.73;42.93;;;;;;;-141.22;100.00;65034.22;4922497;28;20459;-50
2023/03/18 10:35:38;;;;;;;48.90;43.93;;;;;;;-141.22;100.00;65034.22;4927995;29;20511;-54
2023/03/18 10:38:17;;;;;;;48.83;43.83;;;;;;;-141.22;100.00;65034.22;4930891;29;20434;-50
2023/03/18 10:40:48;;;;;;;48.93;43.70;;;;;;;-141.22;100.00;65034.22;4926125;29;20444;-48
2023/03/18 10:43:18;;;;;;;49.27;44.20;;;;;;;-141.22;100.00;65034.22;4933576;28;20467;-48
2023/03/18 10:45:48;;;;;;;49.90;43.57;;;;;;;-141.22;100.00;65034.22;4935127;29;20444;-47
2023/03/18 10:48:21;;;;;;;51.57;46.17;;;;;;;-141.22;100.00;65034.22;4931021;29;20488;-47
2023/03/18 10:50:57;;;;;;;51.23;45.77;;;;;;;-141.22;100.00;65034.22;4934338;29;20436;-49
2023/03/18 10:53:31;;;;;;;50.30;44.03;;;;;;;-141.22;100.00;65034.22;4929054;28;20464;-46
2023/03/18 10:56:06;;;;;;;50.13;44.77;;;;;;;-141.22;100.00;65034.22;4934425;29;20552;-48
2023/03/18 10:58:34;;;;;;;50.13;44.00;;;;;;;-141.22;100.00;65034.22;4935063;29;20463;-51
2023/03/18 11:01:03;;;;;;;50.70;45.30;;;;;;;-141.22;100.00;65034.22;4934313;29;20468;-51
2023/03/18 11:03:35;;;;;;;49.27;44.17;;;;;;;-141.22;100.00;65034.22;4933238;28;20480;-50
2023/03/18 11:06:04;;;;;;;50.23;45.03;;;;;;;-141.22;100.00;65034.22;4934909;29;20484;-51